Time;durP1;ratioP1;P1;durP2;ratioP2;P2;SDS_P1;SDS_P2;PMS_P1;PMS_P2;Temp;Humidity;BMP_temperature;BMP_pressure;BME280_temperature;BME280_humidity;BME280_pressure;Samples;Min_cycle;Max_cycle;Signal;HPM_P1;HPM_P2
2023/03/08 00:00:17;;;;;;;14.65;6.10;;;6.90;63.70;;;;;;4971613;28;93815;-71
2023/03/08 00:02:42;;;;;;;15.50;6.07;;;6.90;63.70;;;;;;4974786;28;92921;-70
2023/03/08 00:05:09;;;;;;;14.07;6.18;;;6.90;63.80;;;;;;4968226;28;93128;-71
2023/03/08 00:07:35;;;;;;;19.52;6.32;;;7.00;63.80;;;;;;4968929;28;93447;-71
2023/03/08 00:10:01;;;;;;;15.80;6.03;;;6.90;63.80;;;;;;4972047;28;92383;-71
2023/03/08 00:12:27;;;;;;;13.52;6.00;;;7.00;63.80;;;;;;4970982;28;92023;-70
2023/03/08 00:14:53;;;;;;;15.15;6.07;;;7.00;64.10;;;;;;4973984;28;92710;-72
2023/03/08 00:17:19;;;;;;;16.63;6.10;;;6.90;63.90;;;;;;4972694;28;92698;-69
2023/03/08 00:19:44;;;;;;;14.18;5.70;;;6.90;63.70;;;;;;4969556;28;93516;-71
2023/03/08 00:22:11;;;;;;;13.60;5.72;;;6.90;63.80;;;;;;4970255;28;92089;-69
2023/03/08 00:24:37;;;;;;;15.02;5.97;;;6.90;63.90;;;;;;4969996;28;93129;-71
2023/03/08 00:27:03;;;;;;;12.30;5.85;;;6.80;63.80;;;;;;4968407;28;92984;-72
2023/03/08 00:29:30;;;;;;;13.95;5.95;;;6.80;64.20;;;;;;4967133;28;94355;-71
2023/03/08 00:31:55;;;;;;;16.13;5.45;;;6.80;64.00;;;;;;4966698;28;92253;-71
2023/03/08 00:34:21;;;;;;;15.63;5.97;;;6.80;64.00;;;;;;4971856;28;93465;-70
2023/03/08 00:36:47;;;;;;;13.20;5.57;;;6.80;64.00;;;;;;4973302;28;93398;-70
2023/03/08 00:39:15;;;;;;;13.55;6.03;;;6.80;64.10;;;;;;4974907;28;92317;-72
2023/03/08 00:41:41;;;;;;;14.02;5.53;;;6.80;63.90;;;;;;4971445;28;92462;-72
2023/03/08 00:44:06;;;;;;;16.60;6.38;;;6.80;64.00;;;;;;4965817;28;94998;-72
2023/03/08 00:46:32;;;;;;;15.68;6.47;;;6.80;64.20;;;;;;4957776;28;94333;-70
2023/03/08 00:48:58;;;;;;;13.82;5.90;;;6.80;64.40;;;;;;4969274;28;94326;-70
2023/03/08 00:51:25;;;;;;;15.38;5.95;;;6.70;64.30;;;;;;4972983;28;93014;-72
2023/03/08 00:53:50;;;;;;;21.63;6.75;;;6.70;64.10;;;;;;4970711;28;92739;-70
2023/03/08 00:56:16;;;;;;;15.23;6.20;;;6.70;64.40;;;;;;4969572;28;92884;-70
2023/03/08 00:58:42;;;;;;;15.57;5.57;;;6.70;64.30;;;;;;4969675;28;92613;-69
2023/03/08 01:01:13;;;;;;;18.65;6.47;;;6.70;64.10;;;;;;4970360;28;91920;-70
2023/03/08 01:03:39;;;;;;;14.82;6.10;;;6.80;64.10;;;;;;4969115;28;93219;-72
2023/03/08 01:06:08;;;;;;;12.85;5.30;;;6.80;63.80;;;;;;4972181;28;92517;-70
2023/03/08 01:08:34;;;;;;;16.50;6.03;;;6.80;64.00;;;;;;4968932;28;93647;-70
2023/03/08 01:11:00;;;;;;;14.10;6.03;;;6.80;64.50;;;;;;4972446;28;92443;-71
2023/03/08 01:13:28;;;;;;;13.05;5.55;;;6.70;64.80;;;;;;4969052;28;93372;-71
2023/03/08 01:15:54;;;;;;;15.05;6.10;;;6.70;65.10;;;;;;4970202;28;93231;-71
2023/03/08 01:18:20;;;;;;;13.48;5.82;;;6.60;65.20;;;;;;4965485;28;92488;-70
2023/03/08 01:20:55;;;;;;;14.60;5.82;;;6.60;65.50;;;;;;4970533;28;92527;-70
2023/03/08 01:23:20;;;;;;;19.45;5.90;;;6.50;65.50;;;;;;4969761;28;92576;-70
2023/03/08 01:25:46;;;;;;;14.88;5.80;;;6.50;65.60;;;;;;4970630;28;92411;-71
2023/03/08 01:28:12;;;;;;;16.50;5.80;;;6.50;65.80;;;;;;4969499;28;92322;-70
2023/03/08 01:30:37;;;;;;;14.18;6.05;;;6.50;66.10;;;;;;4968114;28;93188;-69
2023/03/08 01:33:03;;;;;;;14.85;5.97;;;6.50;66.20;;;;;;4968960;28;93777;-72
2023/03/08 01:35:28;;;;;;;17.88;6.35;;;6.40;65.90;;;;;;4970714;28;94110;-72
2023/03/08 01:37:54;;;;;;;21.60;6.40;;;6.40;66.60;;;;;;4971040;28;92794;-70
2023/03/08 01:40:21;;;;;;;16.33;5.65;;;6.30;66.80;;;;;;4969938;28;92606;-71
2023/03/08 01:42:47;;;;;;;12.70;5.38;;;6.30;66.90;;;;;;4972882;28;94520;-70
2023/03/08 01:45:57;;;;;;;16.48;6.40;;;6.30;66.90;;;;;;4969665;28;93820;-69
2023/03/08 01:48:28;;;;;;;15.05;6.32;;;6.30;67.10;;;;;;4970581;28;94260;-69
2023/03/08 01:50:54;;;;;;;14.07;6.30;;;6.20;67.00;;;;;;4975653;28;91993;-69
2023/03/08 01:53:20;;;;;;;14.85;5.88;;;6.20;66.90;;;;;;4971349;28;92710;-69
2023/03/08 01:55:45;;;;;;;13.85;5.57;;;6.10;66.90;;;;;;4967651;28;92803;-68
2023/03/08 01:58:12;;;;;;;18.17;6.30;;;6.10;66.90;;;;;;4970219;28;93583;-70
2023/03/08 02:00:38;;;;;;;14.95;6.45;;;6.00;67.30;;;;;;4975145;28;92170;-69
2023/03/08 02:03:08;;;;;;;14.88;5.93;;;5.90;67.60;;;;;;4977143;28;94112;-72
2023/03/08 02:05:40;;;;;;;15.85;6.13;;;5.80;68.00;;;;;;4972249;28;92812;-69
2023/03/08 02:08:06;;;;;;;16.05;6.00;;;5.70;68.30;;;;;;4970723;28;94235;-68
2023/03/08 02:10:33;;;;;;;16.00;5.90;;;5.60;68.40;;;;;;4973046;28;94493;-72
2023/03/08 02:13:00;;;;;;;15.70;5.95;;;5.60;68.50;;;;;;4969935;28;93315;-69
2023/03/08 02:15:25;;;;;;;18.15;6.53;;;5.50;68.50;;;;;;4975539;28;92723;-70
2023/03/08 02:17:51;;;;;;;16.63;6.43;;;5.50;68.80;;;;;;4975744;28;92886;-69
2023/03/08 02:20:34;;;;;;;12.70;5.65;;;5.40;68.90;;;;;;4973296;28;94053;-70
2023/03/08 02:23:14;;;;;;;16.27;5.80;;;5.40;69.20;;;;;;4968982;28;93693;-70
2023/03/08 02:25:48;;;;;;;16.48;5.82;;;5.40;69.30;;;;;;4970233;28;94481;-72
2023/03/08 02:28:15;;;;;;;13.73;6.15;;;5.30;69.60;;;;;;4969332;28;92675;-72
2023/03/08 02:30:40;;;;;;;16.90;5.93;;;5.20;69.90;;;;;;4971134;28;92781;-70
2023/03/08 02:33:06;;;;;;;14.27;5.90;;;5.10;69.80;;;;;;4969734;28;94058;-71
2023/03/08 02:35:31;;;;;;;16.48;6.95;;;5.10;70.40;;;;;;4971953;28;93731;-71
2023/03/08 02:37:57;;;;;;;13.77;6.07;;;5.00;70.40;;;;;;4974764;28;92959;-71
2023/03/08 02:40:23;;;;;;;14.15;5.88;;;4.90;70.80;;;;;;4974849;28;93513;-70
2023/03/08 02:42:49;;;;;;;13.55;6.25;;;4.90;71.30;;;;;;4973245;28;93877;-70
2023/03/08 02:45:14;;;;;;;14.90;6.47;;;4.90;71.20;;;;;;4971438;28;93214;-71
2023/03/08 02:47:41;;;;;;;15.75;6.05;;;4.90;71.30;;;;;;4978608;28;93844;-69
2023/03/08 02:50:07;;;;;;;15.05;5.97;;;4.90;71.30;;;;;;4972613;28;93039;-71
2023/03/08 02:52:34;;;;;;;16.42;6.47;;;4.90;71.50;;;;;;4971382;28;92743;-73
2023/03/08 02:55:00;;;;;;;15.98;6.43;;;4.90;71.90;;;;;;4972163;28;92723;-71
2023/03/08 02:57:25;;;;;;;17.08;6.43;;;4.90;72.00;;;;;;4970315;28;92557;-71
2023/03/08 02:59:51;;;;;;;17.95;6.28;;;4.90;72.10;;;;;;4971890;28;92126;-70
2023/03/08 03:02:17;;;;;;;16.13;6.40;;;5.00;72.30;;;;;;4970366;28;93412;-70
2023/03/08 03:04:42;;;;;;;16.33;6.53;;;5.10;72.20;;;;;;4973070;28;93566;-71
2023/03/08 03:07:08;;;;;;;17.13;6.47;;;5.10;72.30;;;;;;4972082;28;94065;-72
2023/03/08 03:09:34;;;;;;;17.40;6.85;;;5.20;72.00;;;;;;4971677;28;93063;-71
2023/03/08 03:12:00;;;;;;;17.42;6.13;;;5.30;72.00;;;;;;4970811;28;94370;-70
2023/03/08 03:14:27;;;;;;;16.52;6.47;;;5.30;72.00;;;;;;4970077;28;93332;-70
2023/03/08 03:16:53;;;;;;;16.92;6.85;;;5.40;72.00;;;;;;4973225;28;94063;-72
2023/03/08 03:19:18;;;;;;;15.13;6.32;;;5.40;72.00;;;;;;4972010;28;93100;-71
2023/03/08 03:21:44;;;;;;;16.27;6.50;;;5.40;71.90;;;;;;4971994;28;92602;-70
2023/03/08 03:24:10;;;;;;;15.23;6.45;;;5.40;71.60;;;;;;4971251;28;93504;-72
2023/03/08 03:26:35;;;;;;;17.52;6.65;;;5.40;71.60;;;;;;4973328;28;92563;-71
2023/03/08 03:29:01;;;;;;;17.15;6.55;;;5.50;71.40;;;;;;4974587;28;92145;-70
2023/03/08 03:31:27;;;;;;;15.55;6.03;;;5.50;71.40;;;;;;4972383;28;93346;-70
2023/03/08 03:33:53;;;;;;;20.13;6.95;;;5.50;71.20;;;;;;4967248;28;92897;-71
2023/03/08 03:36:21;;;;;;;14.02;6.28;;;5.60;71.20;;;;;;4969567;28;95125;-72
2023/03/08 03:38:48;;;;;;;16.73;6.32;;;5.60;71.40;;;;;;4972258;28;93435;-71
2023/03/08 03:41:18;;;;;;;16.50;6.97;;;5.60;71.30;;;;;;4972232;28;93573;-72
2023/03/08 03:43:44;;;;;;;20.77;7.18;;;5.60;71.60;;;;;;4972022;28;92429;-72
2023/03/08 03:46:12;;;;;;;19.08;6.32;;;5.60;71.80;;;;;;4970479;28;92593;-69
2023/03/08 03:48:38;;;;;;;19.20;6.88;;;5.50;72.10;;;;;;4965947;28;92732;-70
2023/03/08 03:51:05;;;;;;;17.95;7.07;;;5.40;72.60;;;;;;4966911;28;93153;-70
2023/03/08 03:53:33;;;;;;;18.45;7.30;;;5.30;72.70;;;;;;4969876;28;93135;-70
2023/03/08 03:56:03;;;;;;;18.35;7.15;;;5.20;73.00;;;;;;4970535;28;93945;-71
2023/03/08 03:58:29;;;;;;;17.77;6.82;;;5.10;73.40;;;;;;4969988;28;92931;-70
2023/03/08 04:00:55;;;;;;;16.27;6.85;;;5.00;73.60;;;;;;4968719;28;94296;-71
2023/03/08 04:03:21;;;;;;;18.10;7.07;;;5.00;73.70;;;;;;4969668;28;93233;-72
2023/03/08 04:05:46;;;;;;;17.52;7.05;;;4.90;73.90;;;;;;4968287;28;92084;-70
2023/03/08 04:08:12;;;;;;;20.40;7.40;;;4.90;74.20;;;;;;4972218;28;92691;-70
2023/03/08 04:10:38;;;;;;;19.73;7.15;;;4.90;74.50;;;;;;4967465;28;92693;-70
2023/03/08 04:13:04;;;;;;;18.60;7.30;;;4.80;74.50;;;;;;4969046;28;93365;-74
2023/03/08 04:15:29;;;;;;;18.90;6.75;;;4.80;74.80;;;;;;4974465;28;92890;-71
2023/03/08 04:17:55;;;;;;;14.73;6.70;;;4.80;75.00;;;;;;4969245;28;92437;-73
2023/03/08 04:20:21;;;;;;;18.58;7.10;;;4.80;75.00;;;;;;4974261;28;92647;-71
2023/03/08 04:22:47;;;;;;;15.73;6.63;;;4.80;75.00;;;;;;4969629;28;93081;-73
2023/03/08 04:25:13;;;;;;;20.20;7.57;;;4.90;75.00;;;;;;4966556;28;94335;-72
2023/03/08 04:27:39;;;;;;;16.63;7.20;;;4.90;74.90;;;;;;4969740;28;93068;-70
2023/03/08 04:30:05;;;;;;;18.35;7.53;;;4.90;74.90;;;;;;4968965;28;93714;-71
2023/03/08 04:32:31;;;;;;;16.55;6.97;;;5.00;74.90;;;;;;4968541;28;94392;-71
2023/03/08 04:34:57;;;;;;;18.33;7.38;;;5.00;75.10;;;;;;4970385;28;93608;-71
2023/03/08 04:37:24;;;;;;;17.10;7.35;;;5.00;75.10;;;;;;4965976;28;92339;-70
2023/03/08 04:39:49;;;;;;;19.55;6.70;;;5.00;74.90;;;;;;4976736;28;94102;-71
2023/03/08 04:42:15;;;;;;;17.17;6.63;;;5.00;74.50;;;;;;4969389;28;92998;-70
2023/03/08 04:44:41;;;;;;;18.02;7.03;;;4.90;74.60;;;;;;4965567;28;93626;-69
2023/03/08 04:47:06;;;;;;;18.90;7.57;;;4.90;74.90;;;;;;4976110;28;92705;-70
2023/03/08 04:49:32;;;;;;;15.30;6.40;;;5.00;74.70;;;;;;4975167;28;94631;-71
2023/03/08 04:51:58;;;;;;;19.60;7.07;;;5.00;75.10;;;;;;4973290;28;93852;-70
2023/03/08 04:54:23;;;;;;;17.65;6.85;;;5.00;74.70;;;;;;4977855;28;92756;-71
2023/03/08 04:56:49;;;;;;;19.15;7.65;;;5.00;74.90;;;;;;4975094;28;92702;-71
2023/03/08 04:59:15;;;;;;;20.45;7.22;;;4.90;75.50;;;;;;4973005;28;94174;-69
2023/03/08 05:01:41;;;;;;;19.70;7.35;;;4.90;74.90;;;;;;4965281;28;93681;-69
2023/03/08 05:04:10;;;;;;;20.85;7.40;;;4.90;75.00;;;;;;4972572;28;92420;-71
2023/03/08 05:06:36;;;;;;;18.48;7.13;;;4.90;75.00;;;;;;4976723;28;91830;-69
2023/03/08 05:09:02;;;;;;;20.92;7.97;;;4.90;75.20;;;;;;4973585;28;93607;-69
2023/03/08 05:11:28;;;;;;;19.02;7.63;;;4.90;75.50;;;;;;4972353;28;92482;-68
2023/03/08 05:13:56;;;;;;;23.38;8.07;;;4.90;75.20;;;;;;4973118;28;93588;-72
2023/03/08 05:16:23;;;;;;;18.40;7.30;;;4.90;75.30;;;;;;4974572;28;92298;-70
2023/03/08 05:18:48;;;;;;;18.88;7.40;;;4.90;75.50;;;;;;4971423;28;92935;-68
2023/03/08 05:21:19;;;;;;;19.55;7.72;;;4.90;75.40;;;;;;4973911;28;92983;-69
2023/03/08 05:23:46;;;;;;;17.05;7.28;;;5.00;75.30;;;;;;4982138;28;92437;-68
2023/03/08 05:26:14;;;;;;;17.13;7.10;;;5.00;75.20;;;;;;4976082;28;92147;-70
2023/03/08 05:28:41;;;;;;;18.25;7.32;;;5.00;75.30;;;;;;4973917;28;93473;-70
2023/03/08 05:31:18;;;;;;;18.38;6.95;;;5.10;74.80;;;;;;4974798;28;92889;-69
2023/03/08 05:33:45;;;;;;;21.17;7.25;;;5.20;74.70;;;;;;4973766;28;92641;-69
2023/03/08 05:36:12;;;;;;;20.30;7.15;;;5.20;74.40;;;;;;4972264;28;94266;-69
2023/03/08 05:38:38;;;;;;;16.42;6.97;;;5.30;74.40;;;;;;4975999;28;94156;-68
2023/03/08 05:41:07;;;;;;;16.42;7.18;;;5.30;74.20;;;;;;4978674;28;94111;-67
2023/03/08 05:43:33;;;;;;;21.27;7.47;;;5.40;74.10;;;;;;4969921;28;93693;-67
2023/03/08 05:46:06;;;;;;;21.45;7.90;;;5.40;74.40;;;;;;4974108;28;92559;-69
2023/03/08 05:48:33;;;;;;;23.33;8.65;;;5.40;74.40;;;;;;4968162;28;93622;-72
2023/03/08 05:51:07;;;;;;;20.23;7.53;;;5.30;74.70;;;;;;4975135;28;93127;-69
2023/03/08 05:53:33;;;;;;;16.65;7.20;;;5.20;74.70;;;;;;4976976;28;92545;-68
2023/03/08 05:56:16;;;;;;;18.73;7.80;;;5.10;75.10;;;;;;4965099;28;92180;-72
2023/03/08 05:58:43;;;;;;;19.00;7.63;;;5.10;74.90;;;;;;4970933;28;92722;-71
2023/03/08 06:01:11;;;;;;;21.58;8.27;;;5.20;74.90;;;;;;4967376;28;92605;-71
2023/03/08 06:03:37;;;;;;;18.42;7.65;;;5.30;74.50;;;;;;4967070;28;93544;-70
2023/03/08 06:06:02;;;;;;;16.08;6.38;;;5.30;74.40;;;;;;4973779;28;92608;-70
2023/03/08 06:08:28;;;;;;;16.08;6.80;;;5.40;73.60;;;;;;4972852;28;92713;-70
2023/03/08 06:10:54;;;;;;;16.42;6.78;;;5.60;72.30;;;;;;4969160;28;92535;-72
2023/03/08 06:13:19;;;;;;;17.48;6.82;;;5.80;72.00;;;;;;4967311;28;94156;-71
2023/03/08 06:15:45;;;;;;;21.42;7.32;;;5.90;71.10;;;;;;4967184;28;92558;-70
2023/03/08 06:18:11;;;;;;;18.08;6.90;;;6.00;71.10;;;;;;4973407;28;92824;-71
2023/03/08 06:20:36;;;;;;;17.92;7.05;;;6.10;70.80;;;;;;4978597;28;92316;-70
2023/03/08 06:23:02;;;;;;;14.63;6.68;;;6.20;70.20;;;;;;4974313;28;92764;-69
2023/03/08 06:25:27;;;;;;;15.32;6.85;;;6.30;70.50;;;;;;4979350;28;92213;-73
2023/03/08 06:27:53;;;;;;;19.05;7.15;;;6.40;69.90;;;;;;4980863;28;94381;-72
2023/03/08 06:30:19;;;;;;;15.57;6.45;;;6.40;69.60;;;;;;4974395;28;93940;-71
2023/03/08 06:32:45;;;;;;;20.83;7.72;;;6.50;70.30;;;;;;4972841;28;92559;-69
2023/03/08 06:35:11;;;;;;;17.40;6.55;;;6.50;69.30;;;;;;4977413;28;92358;-69
2023/03/08 06:37:37;;;;;;;19.15;6.82;;;6.50;69.40;;;;;;4977015;28;94257;-72
2023/03/08 06:40:04;;;;;;;16.63;6.93;;;6.60;69.30;;;;;;4980991;28;92435;-70
2023/03/08 06:42:30;;;;;;;16.63;7.10;;;6.60;68.90;;;;;;4968535;28;93009;-69
2023/03/08 06:44:56;;;;;;;17.70;7.30;;;6.60;68.50;;;;;;4978435;28;91693;-71
2023/03/08 06:47:22;;;;;;;17.58;7.40;;;6.70;68.60;;;;;;4976900;28;93182;-68
2023/03/08 06:49:47;;;;;;;17.30;7.32;;;6.80;68.90;;;;;;4978651;28;92529;-69
2023/03/08 06:52:13;;;;;;;22.55;7.22;;;6.80;67.80;;;;;;4979585;28;93490;-69
2023/03/08 06:54:38;;;;;;;18.00;7.05;;;6.90;67.30;;;;;;4974951;28;93804;-71
2023/03/08 06:57:04;;;;;;;17.55;7.18;;;6.90;67.00;;;;;;4978331;28;93237;-69
2023/03/08 06:59:30;;;;;;;18.88;7.10;;;6.90;67.00;;;;;;4967988;28;93394;-70
2023/03/08 07:01:55;;;;;;;18.27;7.50;;;7.00;66.90;;;;;;4975207;28;93204;-69
2023/03/08 07:04:21;;;;;;;17.20;7.47;;;7.10;66.80;;;;;;4976685;28;92897;-71
2023/03/08 07:06:47;;;;;;;21.17;7.47;;;7.10;66.30;;;;;;4978380;28;93722;-69
2023/03/08 07:09:15;;;;;;;21.63;6.97;;;7.40;65.80;;;;;;4976449;28;92955;-69
2023/03/08 07:11:41;;;;;;;19.75;7.72;;;7.60;65.60;;;;;;4980764;28;93212;-67
2023/03/08 07:14:06;;;;;;;19.88;7.90;;;7.90;64.10;;;;;;4987642;28;92514;-70
2023/03/08 07:16:32;;;;;;;21.77;7.30;;;8.20;64.20;;;;;;4975426;28;94680;-72
2023/03/08 07:18:57;;;;;;;17.02;7.38;;;8.30;63.10;;;;;;4986069;28;93328;-72
2023/03/08 07:21:23;;;;;;;19.75;8.25;;;8.20;64.10;;;;;;4977643;28;92300;-70
2023/03/08 07:23:52;;;;;;;18.80;8.05;;;8.30;64.10;;;;;;4989633;28;92578;-70
2023/03/08 07:26:17;;;;;;;19.92;8.23;;;8.20;64.00;;;;;;4986011;28;93744;-72
2023/03/08 07:28:43;;;;;;;18.65;7.85;;;8.10;64.40;;;;;;4985529;28;93405;-70
2023/03/08 07:31:11;;;;;;;24.05;7.90;;;8.00;63.80;;;;;;4987091;28;92558;-70
2023/03/08 07:33:36;;;;;;;22.02;8.13;;;8.00;64.20;;;;;;4977332;28;91473;-70
2023/03/08 07:36:02;;;;;;;23.75;10.73;;;8.00;65.00;;;;;;4978065;28;92827;-71
2023/03/08 07:38:28;;;;;;;22.45;8.52;;;8.00;65.20;;;;;;4976225;28;93509;-70
2023/03/08 07:40:55;;;;;;;18.88;8.38;;;8.10;65.00;;;;;;4975485;28;93270;-71
2023/03/08 07:43:21;;;;;;;17.13;7.95;;;8.40;65.00;;;;;;4973602;28;92200;-72
2023/03/08 07:45:47;;;;;;;22.05;9.05;;;8.70;63.60;;;;;;4976060;28;93121;-70
2023/03/08 07:48:12;;;;;;;18.60;8.38;;;8.90;62.60;;;;;;4981187;28;93942;-72
2023/03/08 07:50:38;;;;;;;22.40;8.73;;;9.00;62.30;;;;;;4972371;28;92485;-74
2023/03/08 07:53:04;;;;;;;23.70;8.60;;;8.90;63.80;;;;;;4974060;28;92673;-69
2023/03/08 07:55:31;;;;;;;23.65;8.02;;;8.80;62.80;;;;;;4978449;28;93646;-72
2023/03/08 07:57:56;;;;;;;20.20;8.57;;;8.70;63.70;;;;;;4986259;28;92752;-73
2023/03/08 08:00:22;;;;;;;21.42;8.13;;;8.70;63.60;;;;;;4977324;28;93552;-70
2023/03/08 08:02:48;;;;;;;23.67;9.05;;;8.60;63.10;;;;;;4982559;28;92374;-72
2023/03/08 08:05:14;;;;;;;19.77;7.75;;;8.60;63.60;;;;;;4991581;28;94111;-71
2023/03/08 08:07:39;;;;;;;21.60;8.55;;;8.50;62.90;;;;;;4979450;28;93805;-69
2023/03/08 08:10:07;;;;;;;18.65;7.97;;;8.50;64.50;;;;;;4975432;28;92649;-72
2023/03/08 08:12:33;;;;;;;17.70;7.25;;;8.70;65.40;;;;;;4981961;28;92804;-70
2023/03/08 08:14:58;;;;;;;20.20;8.32;;;8.80;65.40;;;;;;4990876;28;93007;-71
2023/03/08 08:17:24;;;;;;;15.20;7.15;;;9.00;64.70;;;;;;4975777;28;92961;-70
2023/03/08 08:19:50;;;;;;;20.10;6.97;;;9.00;64.10;;;;;;4980549;28;92813;-69
2023/03/08 08:22:16;;;;;;;16.08;6.90;;;9.00;63.50;;;;;;4985866;28;92005;-70
2023/03/08 08:24:41;;;;;;;17.45;6.85;;;9.20;63.30;;;;;;4977552;28;93254;-70
2023/03/08 08:27:07;;;;;;;16.67;6.65;;;9.30;63.20;;;;;;4975524;28;92596;-70
2023/03/08 08:29:33;;;;;;;14.68;6.20;;;9.40;63.30;;;;;;4976505;28;93102;-71
2023/03/08 08:31:59;;;;;;;16.67;6.18;;;9.40;62.70;;;;;;4976479;28;92537;-71
2023/03/08 08:34:24;;;;;;;12.90;5.72;;;9.40;62.70;;;;;;4989221;28;93869;-69
2023/03/08 08:36:50;;;;;;;13.77;5.97;;;9.40;62.40;;;;;;4984347;28;93566;-70
2023/03/08 08:39:16;;;;;;;12.85;5.13;;;9.20;62.80;;;;;;4974243;28;92875;-69
2023/03/08 08:41:41;;;;;;;15.90;5.70;;;9.10;62.40;;;;;;4979469;28;94340;-72
2023/03/08 08:44:07;;;;;;;11.65;5.60;;;9.00;62.80;;;;;;4978699;28;93680;-71
2023/03/08 08:46:33;;;;;;;11.45;5.03;;;8.90;63.00;;;;;;4977300;28;92736;-70
2023/03/08 08:48:59;;;;;;;12.40;5.55;;;8.70;63.70;;;;;;4974960;28;92377;-67
2023/03/08 08:51:26;;;;;;;14.93;6.50;;;8.60;64.20;;;;;;4990067;28;92717;-68
2023/03/08 08:53:52;;;;;;;14.90;6.10;;;8.70;64.70;;;;;;4991224;28;94500;-71
2023/03/08 08:56:21;;;;;;;15.85;6.38;;;8.70;64.70;;;;;;4974787;28;93976;-68
2023/03/08 08:58:47;;;;;;;15.00;5.93;;;8.60;65.30;;;;;;4975686;28;92380;-71
2023/03/08 09:01:22;;;;;;;14.07;5.95;;;8.70;64.60;;;;;;4985666;28;92202;-69
2023/03/08 09:03:48;;;;;;;14.93;6.22;;;8.70;64.90;;;;;;4990061;28;93139;-70
2023/03/08 09:06:16;;;;;;;13.05;6.07;;;8.70;65.00;;;;;;4975551;28;92378;-69
2023/03/08 09:08:42;;;;;;;14.70;6.63;;;8.70;64.70;;;;;;4991880;28;92883;-70
2023/03/08 09:11:09;;;;;;;14.18;5.78;;;8.70;66.30;;;;;;4987120;28;91813;-70
2023/03/08 09:13:40;;;;;;;15.05;6.22;;;8.70;65.30;;;;;;4994441;28;93197;-71
2023/03/08 09:16:15;;;;;;;13.98;5.95;;;8.60;65.30;;;;;;4995171;28;92979;-70
2023/03/08 09:18:41;;;;;;;14.07;6.38;;;8.80;64.60;;;;;;4992106;28;94872;-70
2023/03/08 09:21:06;;;;;;;13.93;5.95;;;8.90;64.90;;;;;;4982300;28;92561;-71
2023/03/08 09:23:32;;;;;;;12.75;6.57;;;8.90;65.00;;;;;;4980050;28;92588;-71
2023/03/08 09:25:59;;;;;;;14.90;6.45;;;8.80;65.00;;;;;;4975338;28;92213;-71
2023/03/08 09:28:25;;;;;;;14.40;6.32;;;8.80;65.20;;;;;;4975546;28;92531;-74
2023/03/08 09:30:50;;;;;;;18.33;6.05;;;8.80;65.00;;;;;;4983094;28;92632;-71
2023/03/08 09:33:16;;;;;;;19.15;6.72;;;8.80;64.30;;;;;;4977397;28;92896;-71
2023/03/08 09:35:42;;;;;;;14.18;6.70;;;8.90;64.80;;;;;;4974489;28;92917;-71
2023/03/08 09:38:08;;;;;;;13.05;6.05;;;8.90;64.10;;;;;;4983678;28;92558;-70
2023/03/08 09:40:46;;;;;;;15.38;6.65;;;9.00;63.70;;;;;;4975637;28;91982;-70
2023/03/08 09:43:21;;;;;;;14.55;5.82;;;9.10;63.90;;;;;;4973331;28;94549;-70
2023/03/08 09:45:51;;;;;;;20.70;8.20;;;9.10;64.50;;;;;;4990405;28;93347;-71
2023/03/08 09:48:24;;;;;;;17.35;7.35;;;9.00;65.20;;;;;;4974753;28;92486;-70
2023/03/08 09:50:53;;;;;;;19.20;7.00;;;9.00;64.70;;;;;;4988886;28;92690;-70
2023/03/08 09:53:46;;;;;;;14.27;6.63;;;9.00;64.90;;;;;;4994592;28;92392;-73
2023/03/08 09:56:38;;;;;;;15.25;6.78;;;9.00;64.60;;;;;;4983649;28;92319;-70
2023/03/08 09:59:27;;;;;;;17.40;6.70;;;9.00;65.20;;;;;;4969108;28;92444;-70
2023/03/08 10:02:12;;;;;;;15.63;6.38;;;8.90;65.50;;;;;;4975251;28;91708;-71
2023/03/08 10:05:08;;;;;;;18.52;6.50;;;8.90;65.50;;;;;;4974405;28;93140;-71
2023/03/08 10:07:59;;;;;;;19.17;6.97;;;9.00;64.70;;;;;;4973917;28;92536;-69
2023/03/08 10:10:40;;;;;;;14.38;6.43;;;9.10;65.00;;;;;;4988068;28;93257;-71
2023/03/08 10:13:21;;;;;;;13.15;6.53;;;9.00;65.30;;;;;;4982643;28;92404;-70
2023/03/08 10:15:51;;;;;;;17.88;6.38;;;9.10;65.40;;;;;;4991501;28;93439;-69
2023/03/08 10:19:01;;;;;;;20.38;6.63;;;9.20;65.40;;;;;;4984986;28;93596;-70
2023/03/08 10:21:30;;;;;;;14.88;7.30;;;9.10;65.30;;;;;;4995518;28;92515;-70
2023/03/08 10:24:10;;;;;;;17.33;6.80;;;9.10;66.20;;;;;;4997914;28;92150;-70
2023/03/08 10:26:36;;;;;;;16.60;6.80;;;9.00;68.00;;;;;;4984855;28;92539;-70
2023/03/08 10:29:02;;;;;;;18.20;7.35;;;9.10;67.00;;;;;;4979228;28;92392;-69
2023/03/08 10:31:32;;;;;;;13.63;6.63;;;9.20;67.30;;;;;;4973333;28;92832;-72
2023/03/08 10:34:14;;;;;;;17.75;7.55;;;9.30;66.80;;;;;;4978739;28;92568;-69
2023/03/08 10:37:13;;;;;;;14.40;6.50;;;9.30;65.70;;;;;;4971098;28;94139;-71
2023/03/08 10:39:52;;;;;;;14.93;7.32;;;9.30;65.20;;;;;;4958334;28;93286;-69
2023/03/08 10:42:21;;;;;;;17.27;7.00;;;9.30;65.70;;;;;;4967067;28;92852;-69
2023/03/08 10:44:57;;;;;;;16.88;6.97;;;9.30;67.40;;;;;;4984412;28;93354;-71
2023/03/08 10:47:30;;;;;;;16.13;7.10;;;9.30;68.10;;;;;;4975897;28;93277;-70
2023/03/08 10:50:20;;;;;;;16.80;7.15;;;9.30;67.30;;;;;;4977154;28;92823;-70
2023/03/08 10:52:46;;;;;;;;;;;9.30;67.30;;;;;;4979552;28;92507;-70
2023/03/08 10:55:14;;;;;;;16.73;6.75;;;9.40;68.20;;;;;;4980367;28;92101;-71
2023/03/08 10:57:46;;;;;;;16.70;5.70;;;9.60;69.00;;;;;;4976841;28;92802;-71
2023/03/08 11:00:23;;;;;;;19.90;7.93;;;9.70;67.50;;;;;;4973106;28;92879;-71
2023/03/08 11:02:49;;;;;;;19.00;7.25;;;9.90;66.80;;;;;;4977971;28;95199;-70
2023/03/08 11:05:19;;;;;;;19.70;8.43;;;9.80;68.40;;;;;;4976768;28;92292;-72
2023/03/08 11:07:54;;;;;;;17.27;7.70;;;10.00;69.50;;;;;;4974852;28;94484;-71
2023/03/08 11:10:23;;;;;;;21.35;8.60;;;10.00;69.00;;;;;;4977646;28;93735;-70
2023/03/08 11:13:27;;;;;;;17.75;7.32;;;10.10;69.30;;;;;;4976310;28;93762;-72
2023/03/08 11:16:02;;;;;;;16.33;8.05;;;10.10;68.60;;;;;;4945600;28;92652;-71
2023/03/08 11:18:43;;;;;;;18.50;7.97;;;10.10;70.90;;;;;;4960761;28;93382;-71
2023/03/08 11:21:21;;;;;;;14.98;7.60;;;10.10;72.40;;;;;;4971852;28;93388;-71
2023/03/08 11:24:24;;;;;;;19.08;7.85;;;10.20;72.40;;;;;;4965342;28;93423;-71
2023/03/08 11:27:05;;;;;;;20.58;8.07;;;10.10;73.40;;;;;;4965082;28;92431;-72
2023/03/08 11:29:42;;;;;;;20.67;8.32;;;10.00;73.80;;;;;;4963132;28;96306;-71
2023/03/08 11:32:10;;;;;;;17.75;7.85;;;10.10;73.80;;;;;;4970385;28;94103;-70
2023/03/08 11:34:55;;;;;;;20.50;9.15;;;10.00;73.30;;;;;;4959336;28;93591;-71
2023/03/08 11:37:33;;;;;;;26.23;10.80;;;9.90;75.90;;;;;;4971632;28;92419;-71
2023/03/08 11:40:20;;;;;;;29.95;12.48;;;10.00;74.90;;;;;;4961855;28;93812;-71
2023/03/08 11:42:52;;;;;;;23.67;8.93;;;10.10;76.40;;;;;;4969453;28;93065;-71
2023/03/08 11:45:31;;;;;;;25.02;11.20;;;10.10;73.30;;;;;;4968275;28;92728;-72
2023/03/08 11:48:05;;;;;;;18.85;8.55;;;10.10;74.00;;;;;;4967570;28;91824;-71
2023/03/08 11:50:46;;;;;;;22.70;8.52;;;10.20;72.50;;;;;;4964993;28;93517;-70
2023/03/08 11:53:32;;;;;;;26.77;10.10;;;10.30;74.60;;;;;;4966600;28;92758;-72
2023/03/08 11:55:58;;;;;;;19.67;8.65;;;10.50;74.90;;;;;;4961299;28;95064;-74
2023/03/08 11:58:39;;;;;;;8.93;3.47;;;10.60;75.20;;;;;;4965102;28;94831;-70
2023/03/08 12:01:28;;;;;;;10.73;3.10;;;10.60;71.30;;;;;;4965060;28;92674;-71
2023/03/08 12:04:05;;;;;;;7.57;3.00;;;10.70;72.10;;;;;;4976520;28;92610;-71
2023/03/08 12:06:53;;;;;;;9.15;2.67;;;10.90;71.00;;;;;;4975057;28;93401;-73
2023/03/08 12:09:27;;;;;;;5.40;1.65;;;11.00;71.00;;;;;;4975215;28;93000;-72
2023/03/08 12:12:02;;;;;;;7.05;2.25;;;11.10;68.60;;;;;;4968263;28;92790;-70
2023/03/08 12:14:32;;;;;;;4.63;1.67;;;11.20;68.10;;;;;;4972539;28;92636;-69
2023/03/08 12:17:09;;;;;;;4.53;1.45;;;11.30;66.80;;;;;;4971674;28;92915;-70
2023/03/08 12:19:49;;;;;;;4.82;1.20;;;11.30;67.30;;;;;;4974198;28;93949;-74
2023/03/08 12:22:38;;;;;;;6.30;2.50;;;11.40;65.80;;;;;;4963289;28;94182;-71
2023/03/08 12:25:23;;;;;;;4.32;1.35;;;11.60;65.00;;;;;;4965884;28;93705;-71
2023/03/08 12:28:11;;;;;;;6.55;1.63;;;11.90;63.80;;;;;;4975759;28;92545;-70
2023/03/08 12:31:02;;;;;;;7.38;1.67;;;12.20;62.00;;;;;;4975757;28;92595;-70
2023/03/08 12:33:31;;;;;;;4.00;1.33;;;12.40;62.60;;;;;;4968646;28;93471;-74
2023/03/08 12:36:02;;;;;;;9.10;1.92;;;12.70;63.20;;;;;;4980212;28;93279;-71
2023/03/08 12:38:29;;;;;;;6.65;1.80;;;12.80;62.80;;;;;;4971622;28;92483;-71
2023/03/08 12:40:55;;;;;;;4.50;1.38;;;13.00;62.50;;;;;;4969846;28;91785;-72
2023/03/08 12:43:21;;;;;;;6.03;1.40;;;13.10;62.90;;;;;;4972188;28;92540;-71
2023/03/08 12:45:58;;;;;;;5.82;1.98;;;13.20;62.70;;;;;;4971860;28;92639;-72
2023/03/08 12:48:29;;;;;;;3.47;0.90;;;13.40;61.80;;;;;;4974391;28;93576;-71
2023/03/08 12:51:01;;;;;;;9.93;3.38;;;13.40;61.40;;;;;;4981620;28;93287;-72
2023/03/08 12:53:33;;;;;;;9.07;2.05;;;13.50;61.20;;;;;;4988063;28;93212;-72
2023/03/08 12:56:02;;;;;;;5.47;0.80;;;13.40;62.10;;;;;;4974334;28;93867;-71